Time;durP1;ratioP1;P1;durP2;ratioP2;P2;SDS_P1;SDS_P2;PMS_P1;PMS_P2;Temp;Humidity;BMP_temperature;BMP_pressure;BME280_temperature;BME280_humidity;BME280_pressure;Samples;Min_cycle;Max_cycle;Signal;HPM_P1;HPM_P2
2022/02/19 00:02:08;;;;;;;7.57;2.83;;;;;;;;;;5012633;28;20224;-86
2022/02/19 00:04:37;;;;;;;4.60;2.00;;;;;;;;;;5013144;28;20212;-86
2022/02/19 00:07:11;;;;;;;1.65;1.50;;;7.90;1.00;;;;;;5013921;28;20201;-86
2022/02/19 00:09:49;;;;;;;4.00;2.13;;;8.00;1.00;;;;;;5013707;28;20205;-86
2022/02/19 00:14:47;;;;;;;5.87;1.70;;;7.90;1.00;;;;;;5018481;28;20236;-80
2022/02/19 00:17:14;;;;;;;6.13;1.40;;;7.90;1.00;;;;;;5019883;28;20447;-79
2022/02/19 00:19:40;;;;;;;7.80;1.80;;;8.00;1.00;;;;;;5022103;28;20857;-80
2022/02/19 00:22:07;;;;;;;1.98;1.45;;;8.00;1.00;;;;;;5018283;28;20220;-80
2022/02/19 00:24:34;;;;;;;3.45;2.15;;;8.00;1.00;;;;;;4999325;28;20586;-80
2022/02/19 00:27:01;;;;;;;2.88;1.52;;;7.90;1.00;;;;;;5000355;28;20231;-81
2022/02/19 00:29:28;;;;;;;2.50;1.63;;;7.90;1.00;;;;;;4999987;28;20200;-81
2022/02/19 00:31:55;;;;;;;4.35;1.98;;;7.80;22.80;;;;;;5003452;28;20561;-81
2022/02/19 00:34:21;;;;;;;2.13;1.38;;;7.80;44.20;;;;;;4999378;28;20252;-80
2022/02/19 00:36:48;;;;;;;2.35;1.50;;;7.80;70.10;;;;;;4999434;28;20209;-80
2022/02/19 00:39:17;;;;;;;5.97;2.30;;;7.70;99.90;;;;;;4999397;28;20232;-80
2022/02/19 00:41:43;;;;;;;7.97;1.55;;;7.70;99.90;;;;;;4999474;28;20307;-80
2022/02/19 00:44:11;;;;;;;2.88;1.80;;;7.70;78.10;;;;;;4999370;28;20256;-80
2022/02/19 00:46:38;;;;;;;2.58;1.67;;;7.70;39.60;;;;;;4999590;28;20235;-81
2022/02/19 00:49:05;;;;;;;4.38;1.90;;;7.70;17.70;;;;;;4999434;28;20220;-80
2022/02/19 00:51:32;;;;;;;3.17;1.45;;;7.70;9.80;;;;;;4998855;28;20232;-81
2022/02/19 00:54:00;;;;;;;2.38;1.70;;;7.70;1.00;;;;;;5004591;28;20271;-80
2022/02/19 00:56:26;;;;;;;4.95;1.70;;;7.70;1.00;;;;;;5014066;28;20189;-77
2022/02/19 00:58:53;;;;;;;6.68;2.50;;;7.70;1.00;;;;;;5015494;28;20216;-79
2022/02/19 01:01:22;;;;;;;11.05;2.20;;;7.60;1.00;;;;;;5010231;28;20275;-79
2022/02/19 01:03:48;;;;;;;2.60;1.63;;;7.70;1.00;;;;;;5005916;28;20225;-79
2022/02/19 01:06:15;;;;;;;6.50;1.90;;;7.70;1.00;;;;;;5001645;28;20205;-80
2022/02/19 01:08:42;;;;;;;9.82;1.95;;;7.60;1.00;;;;;;4999960;28;20232;-81
2022/02/19 01:11:11;;;;;;;3.25;2.25;;;7.60;1.00;;;;;;5001195;28;20237;-81
2022/02/19 01:13:37;;;;;;;8.02;2.97;;;7.70;1.00;;;;;;4999206;28;20240;-81
2022/02/19 01:16:04;;;;;;;6.22;2.13;;;7.70;1.00;;;;;;4998562;28;20228;-81
2022/02/19 01:18:32;;;;;;;5.82;2.17;;;7.60;1.00;;;;;;4998759;28;20237;-81
2022/02/19 01:20:59;;;;;;;4.15;2.00;;;7.60;1.00;;;;;;4998300;28;20696;-81
2022/02/19 01:23:26;;;;;;;5.18;1.52;;;7.60;1.00;;;;;;4998536;28;20236;-81
2022/02/19 01:25:52;;;;;;;4.63;1.73;;;7.60;1.00;;;;;;4998850;28;20256;-81
2022/02/19 01:28:19;;;;;;;3.92;1.75;;;7.60;1.00;;;;;;4999322;28;20209;-81
2022/02/19 01:30:45;;;;;;;6.50;2.20;;;7.70;1.00;;;;;;5000936;28;20208;-80
2022/02/19 01:33:12;;;;;;;7.45;1.95;;;7.70;1.00;;;;;;5008354;28;20260;-81
2022/02/19 01:35:40;;;;;;;3.25;2.15;;;7.70;1.00;;;;;;5002713;28;20211;-81
2022/02/19 01:38:06;;;;;;;2.90;1.63;;;7.70;1.00;;;;;;4998888;28;20232;-82
2022/02/19 01:40:33;;;;;;;2.63;1.38;;;8.00;19.80;;;;;;4998741;28;20209;-81
2022/02/19 01:43:00;;;;;;;15.82;2.42;;;7.70;1.00;;;;;;4998839;28;20233;-81
2022/02/19 01:45:26;;;;;;;3.90;1.75;;;7.70;1.00;;;;;;4998396;28;20205;-81
2022/02/19 01:47:54;;;;;;;10.45;2.42;;;7.70;1.00;;;;;;4998344;28;20204;-81
2022/02/19 01:50:21;;;;;;;3.08;1.75;;;7.70;1.00;;;;;;4999030;28;20208;-81
2022/02/19 01:52:49;;;;;;;3.92;2.05;;;7.70;1.00;;;;;;4998111;28;20260;-81
2022/02/19 01:55:15;;;;;;;8.50;2.10;;;7.70;1.00;;;;;;4998586;28;20213;-81
2022/02/19 01:57:44;;;;;;;3.90;1.65;;;7.70;1.00;;;;;;4998658;28;20220;-81
2022/02/19 02:00:13;;;;;;;2.67;1.58;;;7.70;1.00;;;;;;4997886;28;20236;-82
2022/02/19 02:02:39;;;;;;;7.15;2.15;;;7.70;1.00;;;;;;4998457;28;20270;-81
2022/02/19 02:05:07;;;;;;;4.10;2.15;;;7.70;1.00;;;;;;4998798;28;20209;-81
2022/02/19 02:07:34;;;;;;;2.42;2.00;;;7.60;1.00;;;;;;4999995;28;20259;-82
2022/02/19 02:10:02;;;;;;;4.88;1.75;;;7.60;1.00;;;;;;5002783;28;20227;-81
2022/02/19 02:12:28;;;;;;;8.18;1.63;;;7.60;1.00;;;;;;5002359;28;20271;-81
2022/02/19 02:14:55;;;;;;;5.60;3.35;;;7.60;1.00;;;;;;5002988;28;20276;-81
2022/02/19 02:17:22;;;;;;;3.10;1.70;;;7.70;18.50;;;;;;5002156;28;20201;-82
2022/02/19 02:19:48;;;;;;;4.43;1.38;;;7.70;1.00;;;;;;5002517;28;20251;-82
2022/02/19 02:22:16;;;;;;;6.88;1.90;;;7.50;1.00;;;;;;5002096;28;20256;-81
2022/02/19 02:24:44;;;;;;;7.47;1.77;;;7.60;1.00;;;;;;5003174;28;20213;-80
2022/02/19 02:27:13;;;;;;;11.50;2.38;;;7.60;1.00;;;;;;5002949;28;20575;-81
2022/02/19 02:29:45;;;;;;;8.15;2.90;;;7.60;1.00;;;;;;5002106;28;20212;-81
2022/02/19 02:32:11;;;;;;;9.80;2.65;;;7.60;1.00;;;;;;5002905;28;20668;-80
2022/02/19 02:34:49;;;;;;;7.82;2.42;;;7.60;1.00;;;;;;5008598;28;20201;-82
2022/02/19 02:37:17;;;;;;;4.57;2.30;;;7.60;1.00;;;;;;5002348;28;20196;-80
2022/02/19 02:39:46;;;;;;;5.45;2.35;;;7.60;1.00;;;;;;5001917;28;20228;-81
2022/02/19 02:42:14;;;;;;;6.97;2.50;;;7.60;1.00;;;;;;5002151;28;20225;-81
2022/02/19 02:44:40;;;;;;;5.50;1.63;;;7.30;1.00;;;;;;5002616;28;20229;-79
2022/02/19 02:47:10;;;;;;;4.75;1.70;;;7.50;1.00;;;;;;5005473;28;20271;-79
2022/02/19 02:49:37;;;;;;;4.15;1.63;;;7.50;1.00;;;;;;5007222;28;20224;-80
2022/02/19 02:52:04;;;;;;;4.03;1.70;;;7.60;1.00;;;;;;5005902;28;20668;-80
2022/02/19 02:54:32;;;;;;;7.95;2.45;;;7.60;1.00;;;;;;5003630;28;20221;-79
2022/02/19 02:56:59;;;;;;;6.47;2.08;;;7.50;1.00;;;;;;5014947;28;20236;-79
2022/02/19 02:59:25;;;;;;;6.15;1.98;;;7.50;1.00;;;;;;5018277;28;20232;-81
2022/02/19 03:01:52;;;;;;;5.05;1.80;;;7.50;1.00;;;;;;5010322;28;20248;-81
2022/02/19 03:04:19;;;;;;;5.50;1.50;;;7.50;1.00;;;;;;5006446;28;20448;-80
2022/02/19 03:06:45;;;;;;;4.68;2.10;;;7.50;1.00;;;;;;5004616;28;20200;-80
2022/02/19 03:09:12;;;;;;;2.33;1.48;;;7.50;1.00;;;;;;5002485;28;20272;-81
2022/02/19 03:11:40;;;;;;;4.63;1.98;;;7.50;1.00;;;;;;5004465;28;20220;-81
2022/02/19 03:14:07;;;;;;;11.32;2.20;;;7.40;1.00;;;;;;5003220;28;20236;-81
2022/02/19 03:16:34;;;;;;;4.10;1.55;;;7.40;1.00;;;;;;5001815;28;20255;-81
2022/02/19 03:19:01;;;;;;;5.43;2.05;;;7.40;1.00;;;;;;5003697;28;20205;-80
2022/02/19 03:21:27;;;;;;;5.70;1.90;;;7.40;1.00;;;;;;5007930;28;20240;-81
2022/02/19 03:23:54;;;;;;;5.53;2.05;;;7.40;1.00;;;;;;5002628;28;20228;-81
2022/02/19 03:26:21;;;;;;;5.32;1.92;;;7.40;1.00;;;;;;5001416;28;20201;-80
2022/02/19 03:28:49;;;;;;;10.43;2.83;;;7.40;1.00;;;;;;5000928;28;20547;-80
2022/02/19 03:31:16;;;;;;;6.97;2.25;;;7.40;1.00;;;;;;4999778;28;20561;-79
2022/02/19 03:33:43;;;;;;;3.97;1.92;;;7.40;1.00;;;;;;5000560;28;20225;-82
2022/02/19 03:36:09;;;;;;;3.47;1.90;;;7.40;1.00;;;;;;5001075;28;20676;-81
2022/02/19 03:38:36;;;;;;;4.97;2.55;;;7.40;1.00;;;;;;5001167;28;20236;-81
2022/02/19 03:41:02;;;;;;;4.20;2.35;;;7.40;1.00;;;;;;5000609;28;20240;-81
2022/02/19 03:43:29;;;;;;;4.32;1.25;;;7.40;1.00;;;;;;5001472;28;20291;-81
2022/02/19 03:45:57;;;;;;;10.18;2.20;;;7.40;1.00;;;;;;5001109;28;20671;-81
2022/02/19 03:48:24;;;;;;;3.42;1.70;;;7.30;1.00;;;;;;5000994;28;20606;-82
2022/02/19 03:50:50;;;;;;;4.05;1.90;;;7.30;1.00;;;;;;5000448;28;20236;-81
2022/02/19 03:53:17;;;;;;;2.55;1.80;;;7.30;1.00;;;;;;5000567;28;20225;-81
2022/02/19 03:55:43;;;;;;;2.80;1.90;;;7.30;1.00;;;;;;5000386;28;20288;-81
2022/02/19 03:58:10;;;;;;;3.90;1.70;;;7.30;1.00;;;;;;5000120;28;20473;-80
2022/02/19 04:00:36;;;;;;;4.85;2.00;;;7.30;1.00;;;;;;4999064;28;20232;-80
2022/02/19 04:03:04;;;;;;;4.13;1.70;;;7.30;1.00;;;;;;4999235;28;20622;-80
2022/02/19 04:05:31;;;;;;;2.55;1.83;;;7.30;1.00;;;;;;4999700;28;20205;-80
2022/02/19 04:07:57;;;;;;;6.40;2.42;;;7.30;1.00;;;;;;5000320;28;20220;-80
2022/02/19 04:10:24;;;;;;;2.63;2.38;;;7.30;1.00;;;;;;5000110;28;20228;-81
2022/02/19 04:12:51;;;;;;;7.57;1.58;;;7.20;1.00;;;;;;5007636;28;20692;-81
2022/02/19 04:15:17;;;;;;;5.05;1.83;;;7.20;1.00;;;;;;5009909;28;20201;-81
2022/02/19 04:17:44;;;;;;;8.63;1.92;;;7.20;1.00;;;;;;5009256;28;20201;-79
2022/02/19 04:20:12;;;;;;;3.92;1.48;;;7.10;1.00;;;;;;5011363;28;20205;-80
2022/02/19 04:22:41;;;;;;;5.00;1.98;;;7.10;1.00;;;;;;5010333;28;20228;-80
2022/02/19 04:25:09;;;;;;;6.13;2.97;;;7.10;1.00;;;;;;5003725;28;20209;-81
2022/02/19 04:27:35;;;;;;;3.25;1.58;;;7.00;1.00;;;;;;5004900;28;20240;-81
2022/02/19 04:30:02;;;;;;;4.72;1.67;;;7.00;1.00;;;;;;5002068;28;20201;-81
2022/02/19 04:32:29;;;;;;;3.85;1.98;;;6.90;1.00;;;;;;5002526;28;20264;-80
2022/02/19 04:34:56;;;;;;;8.38;3.05;;;6.80;1.00;;;;;;5000716;28;20260;-81
2022/02/19 04:37:24;;;;;;;8.18;1.80;;;6.80;1.00;;;;;;5002390;28;20236;-81
2022/02/19 04:39:52;;;;;;;7.55;1.70;;;6.80;1.00;;;;;;5000801;28;20205;-81
2022/02/19 04:42:18;;;;;;;4.90;2.33;;;6.90;99.90;;;;;;5004039;28;20260;-80
2022/02/19 04:44:45;;;;;;;5.50;2.10;;;6.80;1.00;;;;;;5012137;28;20464;-80
2022/02/19 04:47:11;;;;;;;3.47;1.85;;;6.80;1.00;;;;;;5012715;28;20209;-80
2022/02/19 04:49:38;;;;;;;3.30;2.30;;;6.70;1.00;;;;;;5013809;28;20263;-81
2022/02/19 04:52:05;;;;;;;3.53;1.80;;;6.70;1.00;;;;;;5004342;28;20205;-80
2022/02/19 04:54:33;;;;;;;6.05;2.30;;;6.70;1.00;;;;;;5003426;28;20231;-81
2022/02/19 04:57:00;;;;;;;5.95;2.30;;;6.70;1.00;;;;;;5004090;28;20201;-80
2022/02/19 04:59:26;;;;;;;9.35;2.28;;;6.70;7.40;;;;;;5016406;28;20661;-79
2022/02/19 05:01:53;;;;;;;1.88;1.65;;;6.60;24.90;;;;;;5016966;28;20236;-79
2022/02/19 05:04:20;;;;;;;6.40;2.10;;;6.70;30.60;;;;;;5010291;28;20278;-81
2022/02/19 05:06:46;;;;;;;3.70;2.42;;;6.60;36.00;;;;;;5009710;28;20248;-79
2022/02/19 05:09:13;;;;;;;7.63;2.50;;;6.60;32.70;;;;;;5010896;28;20433;-80
2022/02/19 05:11:41;;;;;;;6.38;4.38;;;6.60;36.80;;;;;;5014120;28;20204;-80
2022/02/19 05:14:07;;;;;;;4.63;2.63;;;6.60;45.70;;;;;;5004665;28;20658;-81
2022/02/19 05:16:34;;;;;;;10.50;5.30;;;6.50;91.00;;;;;;5003056;28;20209;-81
2022/02/19 05:19:01;;;;;;;3.72;2.95;;;6.50;99.90;;;;;;5001797;28;20212;-81
2022/02/19 05:21:27;;;;;;;7.13;2.80;;;6.50;99.90;;;;;;5002500;28;20550;-81
2022/02/19 05:23:54;;;;;;;8.02;3.88;;;6.50;99.90;;;;;;5001318;28;20711;-82
2022/02/19 05:26:21;;;;;;;3.92;2.47;;;6.50;99.90;;;;;;5002177;28;20284;-81
2022/02/19 05:28:48;;;;;;;6.18;2.83;;;6.50;99.90;;;;;;5001541;28;20209;-81
2022/02/19 05:31:15;;;;;;;2.38;1.85;;;6.50;99.90;;;;;;5000761;28;20201;-81
2022/02/19 05:33:42;;;;;;;3.08;2.78;;;6.50;99.90;;;;;;5001256;28;20221;-81
2022/02/19 05:36:09;;;;;;;2.70;2.47;;;6.50;99.90;;;;;;5002167;28;20205;-81
2022/02/19 05:38:35;;;;;;;4.55;2.00;;;6.50;99.90;;;;;;5004710;28;20652;-80
2022/02/19 05:41:02;;;;;;;3.35;3.05;;;6.50;99.90;;;;;;4997966;28;20212;-81
2022/02/19 05:43:28;;;;;;;4.53;2.00;;;6.50;99.90;;;;;;5001020;28;20255;-81
2022/02/19 05:45:56;;;;;;;6.55;2.88;;;6.40;99.90;;;;;;5003000;28;20239;-81
2022/02/19 05:48:23;;;;;;;2.45;2.08;;;6.40;99.90;;;;;;5005467;28;20251;-81
2022/02/19 05:50:51;;;;;;;4.90;1.92;;;6.40;99.90;;;;;;5004080;28;20200;-80
2022/02/19 05:53:17;;;;;;;2.80;2.20;;;6.30;99.90;;;;;;5004735;28;20217;-80
2022/02/19 05:55:44;;;;;;;2.10;1.85;;;6.20;99.90;;;;;;5009896;28;20205;-79
2022/02/19 05:58:11;;;;;;;5.20;2.70;;;6.20;1.00;;;;;;5011866;28;20212;-80
2022/02/19 06:00:38;;;;;;;5.10;2.25;;;6.20;1.00;;;;;;5012269;28;20221;-79
2022/02/19 06:03:06;;;;;;;2.47;2.10;;;6.20;1.00;;;;;;5005371;28;20675;-80
2022/02/19 06:05:32;;;;;;;5.00;1.65;;;6.10;1.00;;;;;;5004813;28;20272;-81
2022/02/19 06:07:59;;;;;;;3.97;2.17;;;6.20;7.80;;;;;;5005311;28;20228;-80
2022/02/19 06:10:26;;;;;;;2.72;2.33;;;6.00;99.90;;;;;;5003600;28;20221;-79
2022/02/19 06:12:58;;;;;;;3.45;2.53;;;6.10;99.90;;;;;;5051637;23;20268;-87
2022/02/19 06:15:32;;;;;;;3.40;1.70;;;6.00;99.90;;;;;;4998176;28;20197;-86
2022/02/19 06:18:03;;;;;;;5.90;2.00;;;;;;;;;;4996914;28;20228;-86
2022/02/19 06:20:33;;;;;;;8.48;2.40;;;6.20;1.00;;;;;;4993030;28;20487;-85
2022/02/19 06:23:01;;;;;;;5.40;2.30;;;6.00;1.00;;;;;;4996985;28;20226;-85
2022/02/19 06:25:35;;;;;;;6.28;2.28;;;;;;;;;;4996068;28;20225;-84
2022/02/19 06:28:07;;;;;;;3.70;2.20;;;6.00;1.00;;;;;;4995442;28;20237;-86
2022/02/19 06:30:52;;;;;;;4.72;2.20;;;6.20;1.00;;;;;;4995958;28;20188;-85
2022/02/19 06:33:27;;;;;;;4.65;2.35;;;;;;;;;;4988781;28;20241;-86
2022/02/19 06:35:56;;;;;;;4.10;2.13;;;5.90;1.00;;;;;;4989495;28;20232;-87
2022/02/19 06:38:23;;;;;;;3.67;1.80;;;;;;;;;;4987997;28;20240;-86
2022/02/19 06:40:58;;;;;;;5.35;2.50;;;5.90;1.00;;;;;;4991084;28;20198;-86
2022/02/19 06:43:30;;;;;;;2.42;1.90;;;5.90;1.00;;;;;;4991737;28;20225;-86
2022/02/19 06:46:08;;;;;;;1.80;1.30;;;6.00;1.00;;;;;;4992787;28;20729;-84
2022/02/19 06:48:44;;;;;;;3.92;1.90;;;6.20;1.00;;;;;;4997023;28;20182;-86
2022/02/19 06:51:21;;;;;;;2.38;1.60;;;6.10;1.00;;;;;;4997455;28;20189;-86
2022/02/19 06:53:48;;;;;;;3.03;1.55;;;6.20;1.00;;;;;;4995998;28;20235;-86
2022/02/19 06:56:20;;;;;;;2.35;1.63;;;;;;;;;;4995784;28;20269;-85
2022/02/19 06:58:58;;;;;;;5.38;1.63;;;;;;;;;;4995556;28;20182;-84
2022/02/19 07:01:35;;;;;;;6.63;2.03;;;6.10;28.50;;;;;;4994813;28;20193;-86
2022/02/19 07:04:05;;;;;;;2.30;2.05;;;5.60;16.80;;;;;;4996085;28;20229;-84
2022/02/19 07:06:37;;;;;;;3.65;2.40;;;6.00;90.70;;;;;;4992756;28;20261;-85
2022/02/19 07:09:06;;;;;;;3.10;1.50;;;6.00;99.90;;;;;;4991181;28;20210;-86
2022/02/19 07:11:33;;;;;;;1.58;1.20;;;;;;;;;;4990272;28;20206;-85
2022/02/19 07:14:01;;;;;;;3.20;1.20;;;;;;;;;;4990469;28;20474;-86
2022/02/19 07:16:28;;;;;;;2.00;1.58;;;6.10;1.00;;;;;;4992085;28;20241;-87
2022/02/19 07:18:55;;;;;;;3.92;1.48;;;6.00;1.00;;;;;;4994652;28;20273;-85
2022/02/19 07:21:22;;;;;;;3.15;1.50;;;6.00;1.00;;;;;;5001580;28;20201;-86
2022/02/19 07:23:50;;;;;;;5.22;2.10;;;6.00;1.00;;;;;;5001249;28;20221;-85
2022/02/19 07:26:18;;;;;;;1.65;1.52;;;6.00;99.90;;;;;;5001359;28;20178;-84
2022/02/19 07:28:44;;;;;;;1.88;1.77;;;5.90;8.40;;;;;;5001303;28;20198;-85
2022/02/19 07:31:14;;;;;;;3.20;1.88;;;6.00;1.00;;;;;;5001005;28;20189;-85
2022/02/19 07:33:41;;;;;;;2.95;1.67;;;5.90;99.90;;;;;;4997360;28;20220;-86
2022/02/19 07:36:08;;;;;;;7.38;2.35;;;5.80;99.90;;;;;;4989526;28;20217;-86
2022/02/19 07:38:35;;;;;;;1.77;1.67;;;5.90;99.90;;;;;;4989400;28;20210;-86
2022/02/19 07:41:10;;;;;;;5.78;1.83;;;5.90;1.00;;;;;;5506314;23;20239;-86
2022/02/19 07:43:40;;;;;;;3.60;1.50;;;4.00;74.90;;;;;;5008535;28;20228;-86
2022/02/19 07:46:12;;;;;;;4.88;1.92;;;5.80;1.00;;;;;;5013727;28;20253;-83
2022/02/19 07:48:51;;;;;;;2.40;1.60;;;6.40;1.00;;;;;;5020399;28;20273;-85
2022/02/19 07:59:35;;;;;;;5.00;1.90;;;5.90;1.00;;;;;;5009007;28;20249;-79
2022/02/19 08:02:03;;;;;;;4.93;1.88;;;6.00;1.00;;;;;;5013087;28;20240;-80
2022/02/19 08:04:31;;;;;;;4.03;1.52;;;6.00;1.00;;;;;;5008377;28;20221;-82
2022/02/19 08:06:58;;;;;;;2.47;1.77;;;6.00;1.00;;;;;;5003814;28;20229;-80
2022/02/19 08:09:24;;;;;;;1.63;1.52;;;6.00;99.30;;;;;;5003431;28;20248;-81
2022/02/19 08:11:53;;;;;;;1.65;1.30;;;6.00;1.00;;;;;;5002461;28;20243;-81
2022/02/19 08:14:19;;;;;;;2.55;1.38;;;6.00;1.00;;;;;;5004084;28;20209;-81
2022/02/19 08:16:46;;;;;;;2.15;1.40;;;6.00;1.00;;;;;;5001657;28;20221;-81
2022/02/19 08:19:12;;;;;;;2.20;1.45;;;6.10;99.90;;;;;;5005911;28;20209;-80
2022/02/19 08:21:39;;;;;;;5.93;1.92;;;6.20;29.70;;;;;;5004492;28;20216;-83
2022/02/19 08:24:06;;;;;;;2.35;1.48;;;6.20;1.00;;;;;;5004529;28;20225;-82
2022/02/19 08:26:33;;;;;;;1.85;1.60;;;6.20;99.90;;;;;;5004997;28;20224;-82
2022/02/19 08:29:01;;;;;;;2.17;1.70;;;6.20;99.90;;;;;;5003852;28;20205;-82
2022/02/19 08:31:27;;;;;;;1.83;1.67;;;6.20;1.00;;;;;;5001518;28;20205;-81
2022/02/19 08:33:54;;;;;;;2.72;1.80;;;6.20;99.90;;;;;;5001271;28;20201;-82
2022/02/19 08:36:20;;;;;;;2.30;1.27;;;6.10;99.90;;;;;;5001625;28;20719;-81
2022/02/19 08:38:47;;;;;;;1.73;1.55;;;6.00;1.00;;;;;;5001383;28;20209;-80
2022/02/19 08:41:14;;;;;;;3.05;0.98;;;6.10;1.00;;;;;;5001327;28;20205;-80
2022/02/19 08:43:40;;;;;;;1.40;1.30;;;6.00;1.00;;;;;;5002080;28;20292;-80
2022/02/19 08:46:08;;;;;;;3.17;1.67;;;6.10;1.00;;;;;;5000398;28;20263;-81
2022/02/19 08:48:35;;;;;;;2.88;1.65;;;6.00;86.40;;;;;;5000551;28;20277;-81
2022/02/19 08:51:01;;;;;;;2.97;1.42;;;6.10;99.90;;;;;;5001806;28;20232;-80
2022/02/19 08:53:28;;;;;;;3.70;1.95;;;6.10;99.90;;;;;;5002915;28;20208;-80
2022/02/19 08:55:57;;;;;;;2.10;1.42;;;6.30;99.90;;;;;;5002546;28;20276;-80
2022/02/19 08:58:23;;;;;;;2.70;2.03;;;6.10;99.90;;;;;;5002221;28;20216;-82
2022/02/19 09:00:50;;;;;;;4.90;1.60;;;6.00;67.00;;;;;;5002001;28;20205;-81
2022/02/19 09:03:18;;;;;;;1.90;1.80;;;5.90;99.90;;;;;;5003361;28;20235;-81
2022/02/19 09:05:46;;;;;;;2.95;1.80;;;5.80;1.00;;;;;;5004249;28;20235;-81
2022/02/19 09:08:13;;;;;;;2.20;2.10;;;5.60;1.00;;;;;;5003092;28;20208;-81
2022/02/19 09:10:40;;;;;;;4.70;1.48;;;5.70;1.00;;;;;;5001380;28;20273;-81
2022/02/19 09:13:06;;;;;;;4.20;1.48;;;5.70;1.00;;;;;;5002768;28;20205;-80
2022/02/19 09:15:33;;;;;;;3.35;1.40;;;5.80;99.90;;;;;;5000177;28;20217;-79
2022/02/19 09:18:00;;;;;;;3.20;1.50;;;5.70;1.00;;;;;;5000587;28;20236;-81
2022/02/19 09:20:28;;;;;;;4.85;1.67;;;5.50;1.00;;;;;;5000242;28;20232;-80
2022/02/19 09:22:54;;;;;;;2.33;1.73;;;5.60;1.00;;;;;;5004094;28;20765;-80
2022/02/19 09:25:21;;;;;;;5.55;1.95;;;5.60;1.00;;;;;;4999355;28;20275;-80
2022/02/19 09:27:49;;;;;;;1.70;1.60;;;5.50;1.00;;;;;;5000173;28;20205;-80
2022/02/19 09:30:15;;;;;;;2.25;1.50;;;5.50;1.00;;;;;;4999330;28;20259;-82
2022/02/19 09:32:42;;;;;;;3.42;1.65;;;5.60;1.00;;;;;;5004214;28;20232;-81
2022/02/19 09:35:12;;;;;;;6.38;3.50;;;5.60;1.00;;;;;;5007345;28;20221;-80
2022/02/19 09:38:07;;;;;;;4.03;1.60;;;5.70;1.00;;;;;;5007081;28;20201;-82
2022/02/19 09:40:34;;;;;;;3.08;1.98;;;5.70;99.90;;;;;;5006039;28;20201;-82
2022/02/19 09:43:00;;;;;;;5.47;2.03;;;5.50;99.90;;;;;;5004888;28;20208;-82
2022/02/19 09:45:30;;;;;;;2.78;1.88;;;;;;;;;;5003376;28;20598;-82
2022/02/19 09:47:58;;;;;;;2.45;2.25;;;5.30;95.60;;;;;;5005425;28;20263;-82
2022/02/19 09:50:34;;;;;;;5.05;2.13;;;5.30;47.40;;;;;;5001541;28;20710;-81
2022/02/19 09:53:05;;;;;;;9.88;2.55;;;5.70;1.00;;;;;;5001214;28;20255;-83
2022/02/19 09:55:36;;;;;;;5.50;2.55;;;5.50;1.00;;;;;;5001954;28;20248;-82
2022/02/19 09:58:09;;;;;;;6.00;2.08;;;5.80;1.00;;;;;;5008319;28;20183;-79
2022/02/19 10:00:40;;;;;;;5.38;1.83;;;5.70;1.00;;;;;;5013801;28;20236;-80
2022/02/19 10:03:12;;;;;;;3.58;1.60;;;5.60;99.90;;;;;;5013713;28;20213;-80
2022/02/19 10:05:39;;;;;;;6.57;2.40;;;5.90;1.00;;;;;;5010204;28;20220;-80
2022/02/19 10:08:09;;;;;;;6.47;1.85;;;5.80;1.00;;;;;;5006687;28;20219;-79
2022/02/19 10:10:38;;;;;;;8.00;1.70;;;5.90;1.00;;;;;;5009990;28;20212;-81
2022/02/19 10:13:05;;;;;;;6.70;2.20;;;5.90;25.40;;;;;;5004669;28;20267;-83
2022/02/19 10:15:47;;;;;;;3.38;1.70;;;6.10;1.00;;;;;;5002718;28;20229;-82
2022/02/19 10:18:24;;;;;;;6.88;1.95;;;5.90;1.00;;;;;;4999605;28;20200;-81
2022/02/19 10:20:52;;;;;;;4.82;2.35;;;6.00;1.00;;;;;;5000780;28;20229;-80
2022/02/19 10:23:20;;;;;;;4.55;2.00;;;6.10;1.00;;;;;;5000465;28;20255;-81
2022/02/19 10:26:02;;;;;;;2.75;1.35;;;6.20;99.90;;;;;;4999820;28;20247;-81
2022/02/19 10:28:29;;;;;;;3.03;2.10;;;6.20;1.00;;;;;;5000650;28;20231;-81
2022/02/19 10:30:56;;;;;;;7.28;1.85;;;6.30;29.20;;;;;;5007908;28;20209;-81
2022/02/19 10:33:27;;;;;;;2.88;2.10;;;6.30;94.00;;;;;;5006268;28;20209;-80
2022/02/19 10:35:54;;;;;;;5.20;2.25;;;6.40;1.00;;;;;;5004186;28;20225;-81
2022/02/19 10:38:22;;;;;;;7.38;2.03;;;6.40;57.70;;;;;;5003625;28;20373;-81
2022/02/19 10:40:52;;;;;;;4.75;1.80;;;6.40;1.00;;;;;;5003332;28;20260;-81
2022/02/19 10:43:22;;;;;;;4.93;2.00;;;6.60;99.90;;;;;;5004638;28;20632;-82
2022/02/19 10:45:53;;;;;;;6.30;1.70;;;6.60;99.90;;;;;;5003413;28;20708;-80
2022/02/19 10:48:23;;;;;;;3.00;1.58;;;6.50;1.00;;;;;;5005644;28;20659;-80
2022/02/19 10:50:50;;;;;;;3.35;1.70;;;6.50;1.00;;;;;;5009683;28;20251;-80
2022/02/19 10:53:23;;;;;;;2.15;1.52;;;6.50;1.00;;;;;;5011389;28;20205;-80
2022/02/19 10:55:51;;;;;;;6.95;1.83;;;6.60;43.80;;;;;;5003944;28;20356;-81
2022/02/19 10:58:17;;;;;;;3.72;1.52;;;6.50;99.90;;;;;;5002945;28;20213;-81
2022/02/19 11:00:45;;;;;;;6.85;1.50;;;6.30;1.00;;;;;;5001600;28;20440;-80
2022/02/19 11:03:13;;;;;;;4.28;1.98;;;6.40;99.90;;;;;;5002032;28;20377;-81
2022/02/19 11:05:40;;;;;;;3.63;1.75;;;6.40;1.00;;;;;;5002666;28;20300;-81
2022/02/19 11:08:09;;;;;;;3.63;2.63;;;6.30;1.00;;;;;;5004435;28;20207;-82
2022/02/19 11:10:38;;;;;;;9.93;2.65;;;6.20;1.00;;;;;;5004204;28;20229;-81
2022/02/19 11:13:05;;;;;;;4.68;1.65;;;7.00;99.90;;;;;;5005605;28;20201;-81
2022/02/19 11:15:32;;;;;;;1.88;1.60;;;6.10;1.00;;;;;;5005303;28;20229;-81
2022/02/19 11:17:59;;;;;;;4.78;1.70;;;6.10;99.90;;;;;;5011534;28;20205;-79
2022/02/19 11:20:27;;;;;;;4.00;1.83;;;6.20;99.90;;;;;;5013804;28;20294;-79
2022/02/19 11:22:55;;;;;;;5.60;1.80;;;6.10;1.00;;;;;;5014234;28;20264;-81
2022/02/19 11:25:24;;;;;;;3.92;1.63;;;6.10;1.00;;;;;;5007009;28;20263;-80
2022/02/19 11:27:56;;;;;;;14.18;2.42;;;6.30;1.00;;;;;;5004416;28;20205;-81
2022/02/19 11:30:26;;;;;;;3.17;1.50;;;6.40;1.00;;;;;;5012456;28;20228;-80
2022/02/19 11:32:55;;;;;;;5.68;2.28;;;6.40;99.90;;;;;;5016695;28;20193;-80
2022/02/19 11:35:34;;;;;;;7.70;2.28;;;6.40;99.90;;;;;;5015103;28;20213;-80
2022/02/19 11:38:00;;;;;;;2.67;1.60;;;6.40;99.90;;;;;;5008463;28;20208;-81
2022/02/19 11:40:42;;;;;;;6.07;1.98;;;6.50;1.00;;;;;;5003940;28;20228;-82
2022/02/19 11:43:38;;;;;;;2.60;1.67;;;6.60;1.00;;;;;;5001487;28;20193;-81
2022/02/19 11:46:10;;;;;;;7.95;2.70;;;6.80;1.00;;;;;;5001676;28;20546;-81
2022/02/19 11:48:37;;;;;;;6.55;2.50;;;6.90;1.00;;;;;;5001824;28;20561;-80
2022/02/19 11:51:17;;;;;;;5.78;4.38;;;7.00;1.00;;;;;;5002569;28;20263;-80
2022/02/19 11:53:45;;;;;;;4.70;1.73;;;7.10;1.00;;;;;;5004263;28;20216;-80
2022/02/19 11:56:26;;;;;;;6.65;2.95;;;7.10;99.90;;;;;;5002692;28;20237;-80
2022/02/19 11:58:57;;;;;;;5.68;2.40;;;7.20;1.00;;;;;;5003807;28;20220;-81
2022/02/19 12:01:24;;;;;;;5.93;2.30;;;7.30;99.90;;;;;;5002688;28;20189;-81
2022/02/19 12:04:13;;;;;;;7.68;2.13;;;7.30;99.90;;;;;;5001302;28;20204;-81
2022/02/19 12:06:40;;;;;;;3.75;1.90;;;7.40;99.90;;;;;;5003264;28;20403;-80
2022/02/19 12:09:10;;;;;;;5.90;1.90;;;7.30;99.90;;;;;;5001601;28;20228;-81
2022/02/19 12:12:13;;;;;;;3.28;1.95;;;7.40;93.50;;;;;;5001469;28;20227;-81
2022/02/19 12:14:57;;;;;;;5.07;2.25;;;7.40;69.60;;;;;;5002666;28;20189;-81
2022/02/19 12:17:42;;;;;;;5.82;1.50;;;7.50;59.20;;;;;;5000856;28;20193;-81
2022/02/19 12:20:11;;;;;;;6.95;1.92;;;7.50;1.00;;;;;;4995120;28;20240;-81
2022/02/19 12:22:41;;;;;;;3.25;1.40;;;7.40;1.00;;;;;;5000495;28;20212;-80
2022/02/19 12:25:09;;;;;;;3.75;1.90;;;7.40;1.00;;;;;;4998205;28;20283;-81
2022/02/19 12:27:37;;;;;;;2.83;1.90;;;7.50;1.00;;;;;;5003700;28;20205;-81
2022/02/19 12:30:28;;;;;;;4.43;1.92;;;7.40;23.90;;;;;;5005219;28;20205;-81
2022/02/19 12:32:58;;;;;;;2.15;1.85;;;7.40;1.00;;;;;;5004586;28;20192;-80
2022/02/19 12:35:35;;;;;;;3.80;1.80;;;7.50;1.00;;;;;;5005118;28;20225;-81
2022/02/19 12:38:02;;;;;;;11.63;2.40;;;7.50;1.00;;;;;;5002256;28;20193;-82
2022/02/19 12:40:30;;;;;;;3.90;2.55;;;7.50;1.00;;;;;;5000554;28;20212;-81
2022/02/19 12:42:57;;;;;;;5.45;3.60;;;7.90;99.90;;;;;;5001005;28;20260;-82
2022/02/19 12:45:25;;;;;;;5.65;2.60;;;7.30;99.90;;;;;;5001590;28;20662;-81
2022/02/19 12:47:52;;;;;;;3.70;2.33;;;7.80;1.00;;;;;;5001506;28;20680;-82
2022/02/19 12:50:20;;;;;;;5.78;2.20;;;7.80;1.00;;;;;;4999861;28;20204;-80
2022/02/19 12:52:51;;;;;;;6.53;2.72;;;7.80;1.00;;;;;;5003934;28;20228;-82
2022/02/19 12:55:19;;;;;;;4.40;1.70;;;7.80;1.00;;;;;;5001709;28;20241;-81
2022/02/19 12:57:46;;;;;;;8.65;3.35;;;7.80;1.00;;;;;;5001041;28;20296;-81
2022/02/19 13:00:17;;;;;;;4.88;1.75;;;7.80;1.00;;;;;;5002111;28;20208;-80
2022/02/19 13:02:47;;;;;;;2.47;1.40;;;7.80;1.00;;;;;;5008161;28;20610;-81
2022/02/19 13:05:20;;;;;;;4.53;2.25;;;7.90;1.00;;;;;;5000669;28;20228;-83
2022/02/19 13:07:46;;;;;;;10.32;2.60;;;7.70;1.00;;;;;;5002276;28;20229;-80
2022/02/19 13:10:14;;;;;;;4.78;2.10;;;7.80;1.00;;;;;;5004574;28;20710;-81
2022/02/19 13:12:42;;;;;;;2.33;1.20;;;7.90;1.00;;;;;;5009208;28;20216;-80
2022/02/19 13:15:11;;;;;;;4.00;3.28;;;8.00;1.00;;;;;;5008418;28;20484;-80
2022/02/19 13:17:40;;;;;;;3.95;1.77;;;8.10;99.90;;;;;;5006214;28;20212;-80
2022/02/19 13:20:12;;;;;;;2.90;1.70;;;8.30;1.00;;;;;;5007233;28;20204;-81
2022/02/19 13:22:39;;;;;;;3.67;1.60;;;8.10;1.00;;;;;;5010655;28;20403;-80
2022/02/19 13:25:09;;;;;;;5.78;2.13;;;7.90;56.90;;;;;;5005640;28;20251;-80
2022/02/19 13:27:36;;;;;;;3.92;1.80;;;7.70;99.90;;;;;;5002214;28;20674;-83